Hauptseite
METAR-TAF:

METAR-TAF

Flughäfen :

Václav-Havel-Flughafen Prag

Prag, Tschechien

Breite: 50-06N, Länge: 014-15E, Höhe: 365 m

Beobachtung

Neuester Wetterbericht von vor 22 Minuten, um 08:30 UTC
Wind 3 kt aus unterschiedlichen Richtungen
Temperatur 26°C
Luftfeuchtigkeit 39%
Luftdruck 1017 hPa
Sichtweite 10 km oder mehr
keine Wolken unter 1500 m und keine Kumulonimbus oder Gewitterwolken

METAR: LKPR 170830Z VRB03KT CAVOK 26/11 Q1017 NOSIG

Zeit: 10:52 (08:52 UTC)

Prognose

Neuester Wetterbericht von vor 3 Stunden und 52 Minuten, um 05:00 UTC
Gültige Prognose vom 17 um 06 UTC bis 18 um 12 UTC
Wind 2 kt aus unterschiedlichen Richtungen
Sichtweite 10 km oder mehr
keine Wolken unter 1500 m und keine Kumulonimbus oder Gewitterwolken
Zeitweise
vom 17 um 06 UTC bis 17 um 19 UTC
Wind 6 kt aus Ost/Südost

TAF: LKPR 170500Z 1706/1812 VRB02KT CAVOK TEMPO 1706/1719 12006KT

Wetterbeobachtungen und Prognosen von mehr als 4000 Flughäfen (METAR und TAF Bericht).

Die verfügbaren Stationen werden durch gelbe und rote Markierungen auf der Karte dargestellt.

Führen Sie die Maus auf sie, um den Namen der Station zu sehen.

Darauf klicken, um die Beobachtung von Wetterbeobachtungen und Prognosen zu sehen.

Um die Karte zu ändern : klicken Sie auf den grünen Tasten mit einem schwarzen Kreuz Zum Vergrößern, auf den grünen Button mit einem Gedankenstrich zu verkleinern, oder auf die grünen Pfeile für benachbarte Karten.


METAR-TAF: